Time;durP1;ratioP1;P1;durP2;ratioP2;P2;SDS_P1;SDS_P2;PMS_P1;PMS_P2;Temp;Humidity;BMP_temperature;BMP_pressure;BME280_temperature;BME280_humidity;BME280_pressure;Samples;Min_cycle;Max_cycle;Signal;HPM_P1;HPM_P2
2022/11/21 00:00:41;;;;;;;25.00;15.77;;;1.10;99.90;;;;;;5094440;28;20072;-77
2022/11/21 00:03:09;;;;;;;26.42;14.88;;;1.20;99.90;;;;;;5093761;28;20403;-77
2022/11/21 00:05:40;;;;;;;28.67;15.77;;;1.20;99.90;;;;;;5093757;28;20044;-77
2022/11/21 00:08:06;;;;;;;31.00;16.58;;;1.20;99.90;;;;;;5093457;28;20048;-77
2022/11/21 00:10:32;;;;;;;26.00;15.48;;;1.20;99.90;;;;;;5092471;28;20040;-77
2022/11/21 00:12:58;;;;;;;28.55;16.02;;;1.20;99.90;;;;;;5093946;28;20480;-76
2022/11/21 00:15:24;;;;;;;26.33;14.88;;;1.20;99.90;;;;;;5093690;28;20132;-78
2022/11/21 00:17:51;;;;;;;26.10;16.05;;;1.20;99.90;;;;;;5093782;28;20423;-78
2022/11/21 00:20:19;;;;;;;25.98;15.32;;;1.20;99.90;;;;;;5093707;28;20040;-77
2022/11/21 00:22:44;;;;;;;27.92;15.75;;;1.20;99.90;;;;;;5093705;28;20430;-79
2022/11/21 00:25:11;;;;;;;23.92;15.05;;;1.20;99.90;;;;;;5093378;28;20060;-78
2022/11/21 00:27:36;;;;;;;25.95;15.35;;;1.30;99.90;;;;;;5093557;28;20032;-79
2022/11/21 00:30:03;;;;;;;26.85;15.40;;;1.30;99.90;;;;;;5092379;28;20114;-77
2022/11/21 00:32:29;;;;;;;27.63;15.23;;;1.30;99.90;;;;;;5093850;28;20368;-77
2022/11/21 00:34:54;;;;;;;24.85;14.63;;;2.20;99.90;;;;;;5093461;28;20054;-77
2022/11/21 00:37:20;;;;;;;23.17;15.10;;;1.30;99.90;;;;;;5093618;28;20464;-78
2022/11/21 00:39:46;;;;;;;25.13;14.98;;;1.50;99.90;;;;;;5092228;28;20442;-78
2022/11/21 00:42:11;;;;;;;23.58;13.80;;;1.30;99.90;;;;;;5093421;28;20139;-78
2022/11/21 00:44:37;;;;;;;26.55;14.77;;;1.30;99.90;;;;;;5093412;28;20085;-78
2022/11/21 00:47:02;;;;;;;25.30;14.75;;;1.30;99.90;;;;;;5092083;28;20524;-78
2022/11/21 00:49:28;;;;;;;28.25;15.38;;;1.30;99.90;;;;;;5092098;28;20123;-77
2022/11/21 00:51:53;;;;;;;28.05;14.40;;;1.30;99.90;;;;;;5093816;28;20040;-78
2022/11/21 00:54:19;;;;;;;25.55;14.88;;;1.30;99.90;;;;;;5096065;28;20078;-78
2022/11/21 00:56:44;;;;;;;24.17;13.77;;;1.30;99.90;;;;;;5097107;28;20441;-78
2022/11/21 00:59:10;;;;;;;27.02;15.13;;;1.30;99.90;;;;;;5096852;28;20051;-78
2022/11/21 01:01:36;;;;;;;24.50;15.13;;;1.30;99.90;;;;;;5096874;28;20048;-78
2022/11/21 01:04:01;;;;;;;23.63;13.98;;;1.30;99.90;;;;;;5095652;28;20134;-77
2022/11/21 01:06:27;;;;;;;24.23;13.75;;;1.30;99.90;;;;;;5096856;28;20036;-79
2022/11/21 01:08:52;;;;;;;25.50;14.93;;;1.30;99.90;;;;;;5096678;28;20052;-78
2022/11/21 01:11:19;;;;;;;25.75;14.35;;;1.20;99.90;;;;;;5096706;28;20036;-78
2022/11/21 01:13:46;;;;;;;25.25;15.30;;;1.20;99.90;;;;;;5096941;28;20472;-78
2022/11/21 01:16:13;;;;;;;;;;;1.20;99.90;;;;;;5097139;28;20040;-78
2022/11/21 01:18:39;;;;;;;24.38;14.35;;;1.20;99.90;;;;;;5096661;28;20310;-78
2022/11/21 01:21:11;;;;;;;24.08;15.32;;;1.20;99.90;;;;;;5096633;28;20091;-78
2022/11/21 01:23:37;;;;;;;22.85;14.43;;;1.20;99.90;;;;;;5096388;28;20048;-79
2022/11/21 01:26:04;;;;;;;22.02;14.00;;;1.20;99.90;;;;;;5096482;28;20103;-78
2022/11/21 01:28:31;;;;;;;24.67;14.93;;;1.20;99.90;;;;;;5096342;28;20036;-78
2022/11/21 01:31:04;;;;;;;25.25;14.30;;;1.20;99.90;;;;;;5096409;28;20051;-77
2022/11/21 01:33:30;;;;;;;25.63;14.48;;;1.20;99.90;;;;;;5096186;28;20051;-78
2022/11/21 01:35:55;;;;;;;25.65;15.15;;;1.20;99.90;;;;;;5095369;28;20404;-78
2022/11/21 01:38:21;;;;;;;23.58;14.40;;;1.20;99.90;;;;;;5094951;28;20380;-78
2022/11/21 01:40:46;;;;;;;24.95;15.32;;;1.20;99.90;;;;;;5096310;28;20137;-79
2022/11/21 01:43:14;;;;;;;26.30;15.13;;;1.20;99.90;;;;;;5096340;28;20040;-78
2022/11/21 01:45:55;;;;;;;23.85;15.30;;;1.20;99.90;;;;;;5095970;28;20390;-78
2022/11/21 01:48:28;;;;;;;25.40;14.90;;;1.20;99.90;;;;;;5096255;28;20040;-78
2022/11/21 01:50:58;;;;;;;26.73;14.65;;;1.20;99.90;;;;;;5096109;28;20057;-79
2022/11/21 01:53:24;;;;;;;28.08;14.75;;;1.20;99.90;;;;;;5095967;28;20055;-78
2022/11/21 01:55:50;;;;;;;24.98;14.38;;;1.10;99.90;;;;;;5095851;28;20043;-77
2022/11/21 01:58:16;;;;;;;29.27;15.60;;;1.10;99.90;;;;;;5095677;28;20044;-79
2022/11/21 02:00:46;;;;;;;27.63;15.55;;;1.10;99.90;;;;;;5096315;28;20054;-77
2022/11/21 02:03:15;;;;;;;27.08;14.93;;;1.10;99.90;;;;;;5096336;28;20052;-78
2022/11/21 02:05:41;;;;;;;23.60;14.00;;;1.10;99.90;;;;;;5095293;28;20106;-78
2022/11/21 02:08:17;;;;;;;25.80;14.95;;;1.10;99.90;;;;;;5095480;28;20500;-78
2022/11/21 02:10:55;;;;;;;24.90;14.27;;;1.10;99.90;;;;;;5095488;28;20047;-79
2022/11/21 02:13:21;;;;;;;24.30;14.63;;;1.10;99.90;;;;;;5095453;28;20051;-79
2022/11/21 02:15:47;;;;;;;27.40;15.65;;;1.10;99.90;;;;;;5095479;28;20135;-78
2022/11/21 02:18:13;;;;;;;26.10;15.38;;;1.10;99.90;;;;;;5095430;28;20104;-78
2022/11/21 02:20:45;;;;;;;24.48;15.40;;;1.10;99.90;;;;;;5094104;28;20047;-78
2022/11/21 02:23:30;;;;;;;23.52;14.77;;;1.00;99.90;;;;;;5095296;28;20052;-78
2022/11/21 02:25:56;;;;;;;24.98;14.93;;;1.00;99.90;;;;;;5095274;28;20044;-78
2022/11/21 02:28:23;;;;;;;25.25;14.80;;;0.90;99.90;;;;;;5094294;28;20046;-77
2022/11/21 02:30:49;;;;;;;;;;;0.90;99.90;;;;;;5095244;28;20096;-78
2022/11/21 02:33:15;;;;;;;25.60;15.13;;;0.80;99.90;;;;;;5094860;28;19920;-78
2022/11/21 02:35:41;;;;;;;28.33;14.38;;;0.80;99.90;;;;;;5094883;28;20051;-78
2022/11/21 02:38:19;;;;;;;28.08;14.05;;;0.70;99.90;;;;;;5094955;28;20047;-77
2022/11/21 02:40:56;;;;;;;25.83;15.15;;;0.60;99.90;;;;;;5095105;28;20047;-77
2022/11/21 02:43:25;;;;;;;27.38;15.65;;;0.50;99.90;;;;;;5095207;28;20055;-77
2022/11/21 02:45:51;;;;;;;28.00;16.25;;;0.40;99.90;;;;;;5093892;28;20032;-79
2022/11/21 02:48:16;;;;;;;27.60;15.13;;;0.40;99.90;;;;;;5094781;28;20066;-78
2022/11/21 02:50:44;;;;;;;25.60;14.23;;;0.30;99.90;;;;;;5093572;28;20040;-79
2022/11/21 02:53:13;;;;;;;24.77;14.38;;;0.30;99.90;;;;;;5094710;28;20446;-78
2022/11/21 02:55:39;;;;;;;29.23;15.65;;;0.20;99.90;;;;;;5094667;28;20043;-78
2022/11/21 02:58:05;;;;;;;25.80;15.18;;;0.10;99.90;;;;;;5094521;28;20074;-77
2022/11/21 03:00:32;;;;;;;26.38;15.35;;;0.10;99.90;;;;;;5094502;28;20036;-77
2022/11/21 03:02:58;;;;;;;;;;;0.00;99.90;;;;;;5095162;28;20131;-77
2022/11/21 03:05:24;;;;;;;24.77;15.18;;;0.00;99.90;;;;;;5094866;28;20017;-79
2022/11/21 03:07:49;;;;;;;23.42;13.40;;;-0.10;99.90;;;;;;5094930;28;20500;-79
2022/11/21 03:10:15;;;;;;;24.42;14.50;;;0.50;99.90;;;;;;5094370;28;20526;-77
2022/11/21 03:12:42;;;;;;;24.05;14.75;;;-0.20;99.90;;;;;;5094598;28;20117;-79
2022/11/21 03:15:11;;;;;;;28.80;14.68;;;-0.20;99.90;;;;;;5094163;28;20044;-77
2022/11/21 03:17:36;;;;;;;27.40;15.20;;;-0.30;99.90;;;;;;5094179;28;20135;-79
2022/11/21 03:20:03;;;;;;;24.88;15.38;;;-0.30;99.90;;;;;;5094331;28;20463;-79
2022/11/21 03:22:28;;;;;;;26.85;15.55;;;-0.40;99.90;;;;;;5094033;28;20527;-77
2022/11/21 03:24:54;;;;;;;25.75;14.65;;;-0.40;99.90;;;;;;5094126;28;20060;-77
2022/11/21 03:27:19;;;;;;;25.60;15.00;;;-0.40;99.90;;;;;;5094042;28;20051;-77
2022/11/21 03:29:45;;;;;;;26.20;15.02;;;-0.50;99.90;;;;;;5094276;28;20043;-78
2022/11/21 03:32:11;;;;;;;24.70;14.65;;;-0.50;99.90;;;;;;5094066;28;20048;-78
2022/11/21 03:34:36;;;;;;;23.60;14.80;;;-0.50;99.90;;;;;;5094099;28;20044;-77
2022/11/21 03:37:02;;;;;;;22.67;14.00;;;-0.50;99.90;;;;;;5093121;28;20062;-79
2022/11/21 03:39:31;;;;;;;26.25;14.93;;;-0.60;99.90;;;;;;5093100;28;20044;-78
2022/11/21 03:41:57;;;;;;;25.48;14.45;;;-1.50;99.90;;;;;;5093770;28;20547;-78
2022/11/21 03:44:23;;;;;;;29.13;15.10;;;-1.50;99.90;;;;;;5093959;28;20135;-77
2022/11/21 03:46:49;;;;;;;26.20;14.65;;;-0.70;99.90;;;;;;5093785;28;20050;-77
2022/11/21 03:49:15;;;;;;;25.77;15.05;;;-0.70;99.90;;;;;;5094016;28;20083;-78
2022/11/21 03:51:41;;;;;;;25.35;14.70;;;-1.00;99.90;;;;;;5094009;28;20055;-79
2022/11/21 03:54:07;;;;;;;23.07;14.30;;;-0.70;99.90;;;;;;5093847;28;20083;-79
2022/11/21 03:56:33;;;;;;;27.17;14.93;;;-0.70;99.90;;;;;;5093898;28;20102;-77
2022/11/21 03:58:59;;;;;;;27.52;15.13;;;-0.80;99.90;;;;;;5094360;28;20048;-77
2022/11/21 04:01:25;;;;;;;30.88;15.13;;;-0.80;99.90;;;;;;5093901;28;20044;-77
2022/11/21 04:03:51;;;;;;;24.40;13.43;;;-0.80;99.90;;;;;;5093805;28;20065;-77
2022/11/21 04:06:19;;;;;;;26.70;14.75;;;-0.80;99.90;;;;;;5093624;28;20044;-77
2022/11/21 04:08:44;;;;;;;27.65;14.73;;;-0.90;99.90;;;;;;5093772;28;20130;-77
2022/11/21 04:11:10;;;;;;;26.23;15.32;;;-0.90;99.90;;;;;;5093727;28;20567;-78
2022/11/21 04:13:36;;;;;;;23.50;14.45;;;-0.90;99.90;;;;;;5094000;28;20384;-78
2022/11/21 04:16:04;;;;;;;26.88;15.02;;;-0.90;99.90;;;;;;5093719;28;20044;-79
2022/11/21 04:18:30;;;;;;;24.45;14.15;;;-1.00;99.90;;;;;;5093639;28;20055;-78
2022/11/21 04:21:00;;;;;;;23.38;13.23;;;-1.00;99.90;;;;;;5093559;28;20127;-77
2022/11/21 04:23:26;;;;;;;23.42;13.43;;;-1.00;99.90;;;;;;5093594;28;20059;-77
2022/11/21 04:25:52;;;;;;;23.67;14.20;;;-1.80;99.90;;;;;;5093604;28;20484;-77
2022/11/21 04:28:18;;;;;;;28.23;15.27;;;-1.10;99.90;;;;;;5095078;28;20408;-78
2022/11/21 04:30:44;;;;;;;25.63;14.98;;;-0.20;99.90;;;;;;5096820;28;20040;-78
2022/11/21 04:33:12;;;;;;;26.23;13.55;;;-1.10;99.90;;;;;;5097585;28;20040;-79
2022/11/21 04:35:37;;;;;;;21.42;13.05;;;-1.20;99.90;;;;;;5096990;28;20504;-76
2022/11/21 04:38:03;;;;;;;26.08;14.13;;;-1.20;99.90;;;;;;5097344;28;20053;-76
2022/11/21 04:40:28;;;;;;;24.08;13.23;;;-1.20;99.90;;;;;;5097422;28;20438;-77
2022/11/21 04:42:54;;;;;;;25.13;14.23;;;-1.30;99.90;;;;;;5097400;28;20051;-76
2022/11/21 04:45:19;;;;;;;27.88;14.30;;;-0.10;99.90;;;;;;5097073;28;20051;-78
2022/11/21 04:47:46;;;;;;;28.45;14.98;;;-1.30;99.90;;;;;;5097390;28;20466;-77
2022/11/21 04:50:13;;;;;;;25.02;14.50;;;-1.30;99.90;;;;;;5097173;28;20042;-78
2022/11/21 04:52:39;;;;;;;22.70;14.25;;;-1.30;99.90;;;;;;5097161;28;20048;-77
2022/11/21 04:55:07;;;;;;;24.45;14.23;;;-1.30;99.90;;;;;;5097355;28;20051;-78
2022/11/21 04:57:33;;;;;;;24.35;14.10;;;-1.40;99.90;;;;;;5096027;28;20059;-77
2022/11/21 04:59:59;;;;;;;31.52;15.63;;;-1.40;99.90;;;;;;5096640;28;20040;-77
2022/11/21 05:02:25;;;;;;;24.98;14.05;;;-1.40;99.90;;;;;;5097137;28;20048;-77
2022/11/21 05:04:50;;;;;;;29.05;14.18;;;-1.40;99.90;;;;;;5095754;28;20040;-77
2022/11/21 05:07:17;;;;;;;23.70;13.60;;;-1.40;99.90;;;;;;5097415;28;20529;-78
2022/11/21 05:09:43;;;;;;;;;;;-1.50;99.90;;;;;;5097223;28;20044;-78
2022/11/21 05:14:54;;;;;;;28.02;14.27;;;-1.50;99.90;;;;;;5096678;28;20044;-77
2022/11/21 05:17:19;;;;;;;25.93;14.07;;;-1.60;99.90;;;;;;5097003;28;20129;-77
2022/11/21 05:19:45;;;;;;;26.80;14.35;;;-1.50;99.90;;;;;;5096765;28;20504;-78
2022/11/21 05:22:11;;;;;;;29.67;14.85;;;-1.60;99.90;;;;;;5096739;28;20044;-77
2022/11/21 05:24:37;;;;;;;23.05;13.73;;;-1.60;99.90;;;;;;5096742;28;20052;-77
2022/11/21 05:27:02;;;;;;;26.30;14.82;;;-1.60;99.90;;;;;;5096313;28;20043;-80
2022/11/21 05:29:28;;;;;;;24.77;13.95;;;-1.60;99.90;;;;;;5096329;28;20459;-77
2022/11/21 05:31:54;;;;;;;22.75;13.57;;;-1.60;99.90;;;;;;5095798;28;20076;-77
2022/11/21 05:34:19;;;;;;;25.38;13.30;;;-1.60;99.90;;;;;;5095896;28;20044;-77
2022/11/21 05:36:45;;;;;;;25.02;14.15;;;-1.60;99.90;;;;;;5096134;28;20069;-77
2022/11/21 05:39:10;;;;;;;28.05;14.60;;;-2.10;99.90;;;;;;5094802;28;20056;-78
2022/11/21 05:41:36;;;;;;;25.27;14.57;;;-1.80;99.90;;;;;;5095931;28;20518;-78
2022/11/21 05:44:01;;;;;;;26.50;14.80;;;-1.80;99.90;;;;;;5096107;28;20076;-79
2022/11/21 05:46:27;;;;;;;32.10;14.48;;;-1.80;99.90;;;;;;5096093;28;20442;-80
2022/11/21 05:48:54;;;;;;;24.90;14.15;;;-1.80;99.90;;;;;;5096042;28;20047;-78
2022/11/21 05:51:20;;;;;;;27.25;14.57;;;-1.80;99.90;;;;;;5095971;28;20093;-79
2022/11/21 05:53:47;;;;;;;29.13;15.30;;;-1.80;99.90;;;;;;5095888;28;20123;-77
2022/11/21 05:56:17;;;;;;;26.77;14.82;;;-1.80;99.90;;;;;;5096064;28;20036;-77
2022/11/21 05:58:43;;;;;;;26.80;14.88;;;-2.60;99.90;;;;;;5095952;28;20146;-76
2022/11/21 06:01:11;;;;;;;27.25;14.77;;;-1.90;99.90;;;;;;5096018;28;20039;-78
2022/11/21 06:03:39;;;;;;;28.20;15.15;;;-1.60;99.90;;;;;;5095790;28;20044;-78
2022/11/21 06:06:16;;;;;;;25.52;14.85;;;-1.90;99.90;;;;;;5095707;28;20048;-77
2022/11/21 06:08:43;;;;;;;25.95;14.65;;;-1.20;99.90;;;;;;5097715;28;20036;-78
2022/11/21 06:11:14;;;;;;;26.50;14.48;;;-1.90;99.90;;;;;;5095488;28;20048;-77
2022/11/21 06:13:40;;;;;;;26.15;14.13;;;-2.00;99.90;;;;;;5095567;28;20047;-77
2022/11/21 06:16:12;;;;;;;23.45;14.15;;;-2.00;99.90;;;;;;5095326;28;20396;-77
2022/11/21 06:18:40;;;;;;;26.85;15.82;;;-2.00;99.90;;;;;;5095552;28;20052;-78
2022/11/21 06:21:08;;;;;;;25.35;15.20;;;-2.00;99.90;;;;;;5095319;28;20047;-78
2022/11/21 06:23:35;;;;;;;28.48;15.50;;;-2.00;99.90;;;;;;5095076;28;20048;-79
2022/11/21 06:26:03;;;;;;;26.13;15.88;;;-2.00;99.90;;;;;;5095367;28;20048;-78
2022/11/21 06:28:34;;;;;;;26.38;15.02;;;-2.00;99.90;;;;;;5095473;28;20123;-79
2022/11/21 06:31:04;;;;;;;24.52;14.77;;;-2.10;99.90;;;;;;5092997;28;20453;-79
2022/11/21 06:33:30;;;;;;;26.02;14.40;;;-2.10;99.90;;;;;;5094709;28;20480;-79
2022/11/21 06:35:55;;;;;;;25.63;15.30;;;-1.60;99.90;;;;;;5093476;28;20055;-78
2022/11/21 06:38:21;;;;;;;29.13;15.82;;;-2.10;99.90;;;;;;5093466;28;20032;-79
2022/11/21 06:40:46;;;;;;;32.75;17.10;;;-2.10;99.90;;;;;;5094984;28;20044;-81
2022/11/21 06:43:12;;;;;;;24.73;14.93;;;-2.10;99.90;;;;;;5095634;28;20083;-79
2022/11/21 06:45:38;;;;;;;24.65;14.93;;;-2.10;99.90;;;;;;5095103;28;20044;-77
2022/11/21 06:48:03;;;;;;;29.80;17.13;;;-2.20;99.90;;;;;;5094775;28;20048;-74
2022/11/21 06:50:31;;;;;;;27.60;15.00;;;-2.20;99.90;;;;;;5094463;28;20126;-77
2022/11/21 06:52:57;;;;;;;28.45;15.88;;;-2.20;99.90;;;;;;5094657;28;20051;-76
2022/11/21 06:55:25;;;;;;;28.05;15.60;;;-2.20;99.90;;;;;;5094051;28;20468;-77
2022/11/21 06:57:50;;;;;;;28.80;14.93;;;-1.30;99.90;;;;;;5094524;28;20444;-77
2022/11/21 07:00:16;;;;;;;29.75;16.05;;;-2.20;99.90;;;;;;5095084;28;20136;-78
2022/11/21 07:02:42;;;;;;;31.27;16.33;;;-2.20;99.90;;;;;;5094388;28;20181;-76
2022/11/21 07:05:08;;;;;;;28.85;15.98;;;-2.20;99.90;;;;;;5094548;28;20126;-75
2022/11/21 07:07:33;;;;;;;30.02;15.60;;;-2.30;99.90;;;;;;5094255;28;20039;-76
2022/11/21 07:09:59;;;;;;;27.58;15.55;;;-2.20;99.90;;;;;;5095626;28;20105;-76
2022/11/21 07:15:09;;;;;;;28.98;16.88;;;-2.20;99.90;;;;;;5094412;28;20051;-76
2022/11/21 07:17:35;;;;;;;35.43;15.67;;;-2.20;99.90;;;;;;5094471;28;20075;-78
2022/11/21 07:20:00;;;;;;;32.53;15.65;;;-2.20;99.90;;;;;;5094255;28;20052;-76
2022/11/21 07:22:26;;;;;;;31.77;16.20;;;-2.20;99.90;;;;;;5094209;28;20060;-76
2022/11/21 07:24:52;;;;;;;33.08;16.80;;;-2.20;99.90;;;;;;5094517;28;20055;-77
2022/11/21 07:27:17;;;;;;;35.65;17.50;;;-2.20;99.90;;;;;;5094165;28;20376;-77
2022/11/21 07:29:44;;;;;;;33.08;17.52;;;-2.10;99.90;;;;;;5094384;28;20079;-77
2022/11/21 07:32:09;;;;;;;31.80;16.88;;;-2.10;99.90;;;;;;5094060;28;20088;-77
2022/11/21 07:34:35;;;;;;;34.03;17.52;;;-2.10;99.90;;;;;;5093789;28;20059;-79
2022/11/21 07:37:00;;;;;;;34.80;17.38;;;-2.00;99.90;;;;;;5092826;28;20122;-78
2022/11/21 07:39:26;;;;;;;36.40;18.88;;;-2.00;99.90;;;;;;5093614;28;20123;-77
2022/11/21 07:41:52;;;;;;;30.00;16.88;;;-1.50;99.90;;;;;;5094444;28;20047;-76
2022/11/21 07:44:17;;;;;;;33.80;18.33;;;-2.00;99.90;;;;;;5093786;28;20047;-78
2022/11/21 07:46:43;;;;;;;31.85;17.13;;;-1.90;99.90;;;;;;5092805;28;20044;-77
2022/11/21 07:49:08;;;;;;;33.38;18.45;;;-1.90;99.90;;;;;;5093879;28;20476;-78
2022/11/21 07:51:34;;;;;;;33.72;18.23;;;-1.80;99.90;;;;;;5093803;28;20052;-78
2022/11/21 07:53:59;;;;;;;30.02;16.73;;;-1.80;99.90;;;;;;5093885;28;20055;-78
2022/11/21 07:56:25;;;;;;;34.78;19.27;;;-1.80;99.90;;;;;;5093676;28;20104;-79
2022/11/21 07:58:52;;;;;;;35.55;19.23;;;-1.80;99.90;;;;;;5093610;28;20044;-77
2022/11/21 08:01:17;;;;;;;35.00;19.40;;;-1.70;99.90;;;;;;5093010;28;20480;-77
2022/11/21 08:03:43;;;;;;;36.17;18.70;;;-1.70;99.90;;;;;;5093354;28;20040;-76
2022/11/21 08:06:11;;;;;;;40.85;19.55;;;-1.70;99.90;;;;;;5093340;28;20048;-77
2022/11/21 08:08:36;;;;;;;38.65;19.55;;;-1.70;99.90;;;;;;5093657;28;20492;-78
2022/11/21 08:11:06;;;;;;;45.40;18.15;;;-1.60;99.90;;;;;;5096834;28;20091;-78
2022/11/21 08:13:32;;;;;;;39.90;20.65;;;-1.60;99.90;;;;;;5093944;28;20492;-77
2022/11/21 08:15:58;;;;;;;34.58;19.55;;;-1.60;99.90;;;;;;5093688;28;20063;-79
2022/11/21 08:18:23;;;;;;;40.45;19.42;;;-1.50;99.90;;;;;;5093710;28;20069;-78
2022/11/21 08:20:49;;;;;;;31.73;18.23;;;-1.50;99.90;;;;;;5093541;28;20047;-78
2022/11/21 08:23:15;;;;;;;36.53;19.20;;;-1.40;99.90;;;;;;5093563;28;20083;-77
2022/11/21 08:25:41;;;;;;;36.90;18.38;;;-1.40;99.90;;;;;;5093214;28;20060;-76
2022/11/21 08:28:09;;;;;;;34.33;19.05;;;-1.20;99.90;;;;;;5092966;28;20089;-78
2022/11/21 08:30:36;;;;;;;37.33;19.17;;;-1.30;99.90;;;;;;5091475;28;20050;-77
2022/11/21 08:33:02;;;;;;;35.25;19.00;;;-1.20;99.90;;;;;;5090448;28;20067;-77
2022/11/21 08:35:28;;;;;;;37.92;20.13;;;-1.20;99.90;;;;;;5093434;28;20134;-78
2022/11/21 08:37:58;;;;;;;39.30;20.38;;;-1.20;99.90;;;;;;5092503;28;20553;-76
2022/11/21 08:40:26;;;;;;;39.13;19.55;;;-1.10;99.90;;;;;;5092776;28;20040;-76
2022/11/21 08:43:03;;;;;;;38.83;20.10;;;-1.10;99.90;;;;;;5093490;28;20044;-76
2022/11/21 08:45:29;;;;;;;35.58;19.30;;;-1.00;99.90;;;;;;5093003;28;20496;-77
2022/11/21 08:47:55;;;;;;;36.15;19.95;;;-0.90;99.90;;;;;;5092930;28;20040;-77
2022/11/21 08:50:22;;;;;;;37.80;20.00;;;-0.90;99.90;;;;;;5093091;28;20132;-77
2022/11/21 08:52:47;;;;;;;39.22;21.10;;;-0.80;99.90;;;;;;5092461;28;20461;-76
2022/11/21 08:55:13;;;;;;;33.20;19.75;;;-0.80;99.90;;;;;;5093523;28;20131;-76
2022/11/21 08:57:40;;;;;;;40.95;21.27;;;-0.70;99.90;;;;;;5093086;28;20040;-74
2022/11/21 09:00:08;;;;;;;35.80;20.08;;;-0.70;99.90;;;;;;5093207;28;20063;-76
2022/11/21 09:02:35;;;;;;;36.95;19.85;;;-0.60;99.90;;;;;;5092923;28;20094;-74
2022/11/21 09:05:00;;;;;;;34.65;19.52;;;-0.60;99.90;;;;;;5093357;28;20400;-74
2022/11/21 09:07:26;;;;;;;38.60;19.80;;;-0.50;99.90;;;;;;5092763;28;20036;-74
2022/11/21 09:09:52;;;;;;;38.55;19.20;;;-0.50;99.90;;;;;;5093183;28;20048;-75
2022/11/21 09:12:17;;;;;;;38.10;20.58;;;-0.40;99.90;;;;;;5093104;28;20040;-76
2022/11/21 09:20:11;;;;;;;35.63;19.55;;;-0.20;99.90;;;;;;5096706;28;20048;-76
2022/11/21 09:22:37;;;;;;;37.35;20.85;;;-0.20;99.90;;;;;;5096458;28;20357;-75
2022/11/21 09:25:03;;;;;;;37.40;19.55;;;-0.10;99.90;;;;;;5096661;28;20055;-76
2022/11/21 09:27:29;;;;;;;34.05;19.05;;;0.00;99.90;;;;;;5096561;28;20090;-76
2022/11/21 09:29:55;;;;;;;38.58;20.20;;;0.10;99.90;;;;;;5096403;28;20121;-77
2022/11/21 09:32:21;;;;;;;34.25;20.35;;;0.20;99.90;;;;;;5096483;28;20131;-76
2022/11/21 09:34:46;;;;;;;33.72;19.63;;;0.30;99.90;;;;;;5096214;28;20047;-75
2022/11/21 09:37:12;;;;;;;37.78;20.20;;;0.60;99.90;;;;;;5095441;28;20051;-74
2022/11/21 09:39:37;;;;;;;34.20;19.70;;;0.30;99.90;;;;;;5096341;28;20066;-77
2022/11/21 09:42:19;;;;;;;33.92;19.40;;;0.30;99.90;;;;;;5096241;28;20130;-77
2022/11/21 09:45:01;;;;;;;31.42;19.00;;;0.40;99.90;;;;;;5096243;28;20137;-76
2022/11/21 09:47:33;;;;;;;37.78;19.88;;;0.40;99.90;;;;;;5096114;28;20044;-75
2022/11/21 09:50:01;;;;;;;40.95;21.27;;;0.40;99.90;;;;;;5096414;28;20426;-76
2022/11/21 09:52:36;;;;;;;36.97;20.05;;;0.40;99.90;;;;;;5096162;28;20040;-78
2022/11/21 09:55:06;;;;;;;38.15;20.33;;;0.50;99.90;;;;;;5096112;28;20036;-77
2022/11/21 09:57:34;;;;;;;39.03;20.70;;;0.50;99.90;;;;;;5096082;28;20488;-75
2022/11/21 10:00:03;;;;;;;37.13;21.70;;;0.50;99.90;;;;;;5085203;28;20047;-75
2022/11/21 10:02:28;;;;;;;36.25;20.75;;;0.60;99.90;;;;;;5095179;28;20051;-76
2022/11/21 10:04:59;;;;;;;36.75;21.50;;;0.60;99.90;;;;;;5095711;28;20045;-75
2022/11/21 10:07:29;;;;;;;38.90;20.63;;;0.60;99.90;;;;;;5095515;28;20055;-77
2022/11/21 10:10:47;;;;;;;39.05;20.25;;;0.60;99.90;;;;;;5095800;28;20056;-76
2022/11/21 10:13:31;;;;;;;38.22;21.58;;;0.60;99.90;;;;;;5095759;28;20048;-73
2022/11/21 10:16:10;;;;;;;42.45;21.58;;;0.60;99.90;;;;;;5075411;28;20036;-75
2022/11/21 10:18:58;;;;;;;42.50;21.70;;;0.60;99.90;;;;;;5075312;28;20052;-77
2022/11/21 10:21:33;;;;;;;38.97;21.10;;;0.60;99.90;;;;;;5075354;28;20170;-77
2022/11/21 10:24:07;;;;;;;34.75;20.02;;;0.60;99.90;;;;;;5075057;28;20049;-77
2022/11/21 10:26:45;;;;;;;39.42;21.42;;;0.70;99.90;;;;;;5074482;28;20106;-76
2022/11/21 10:29:36;;;;;;;39.75;22.10;;;0.70;99.90;;;;;;5075267;28;20045;-76
2022/11/21 10:32:19;;;;;;;36.92;21.02;;;0.70;99.90;;;;;;5075049;28;20103;-75
2022/11/21 10:34:46;;;;;;;39.13;21.77;;;0.70;99.90;;;;;;5074898;28;20090;-76
2022/11/21 10:37:28;;;;;;;40.20;21.30;;;0.80;99.90;;;;;;5074970;28;20485;-74
2022/11/21 10:39:55;;;;;;;38.83;21.75;;;0.80;99.90;;;;;;5074933;28;20052;-74
2022/11/21 10:42:43;;;;;;;;;;;0.90;99.90;;;;;;5075472;28;20041;-76
2022/11/21 10:45:22;;;;;;;36.75;20.00;;;0.90;99.90;;;;;;5074690;28;19920;-76
2022/11/21 10:47:50;;;;;;;33.38;19.27;;;1.70;99.90;;;;;;5074736;28;20037;-75
2022/11/21 10:50:37;;;;;;;34.05;19.35;;;1.20;99.90;;;;;;5074667;28;20131;-78
2022/11/21 10:56:06;;;;;;;33.58;18.15;;;1.40;99.90;;;;;;5075040;28;20084;-74
2022/11/21 10:58:36;;;;;;;32.45;18.85;;;1.50;99.90;;;;;;5074540;28;20051;-75
2022/11/21 11:01:02;;;;;;;30.05;17.40;;;1.60;99.90;;;;;;5074534;28;20033;-76
2022/11/21 11:03:30;;;;;;;33.22;18.23;;;1.60;99.90;;;;;;5074407;28;20045;-75
2022/11/21 11:05:58;;;;;;;29.67;17.00;;;1.80;99.90;;;;;;5074301;28;20052;-76
2022/11/21 11:08:26;;;;;;;29.08;16.88;;;1.80;99.90;;;;;;5074007;28;20537;-75
2022/11/21 11:11:11;;;;;;;25.35;15.20;;;1.90;99.90;;;;;;5074427;28;20049;-79
2022/11/21 11:13:59;;;;;;;24.98;15.32;;;1.90;99.90;;;;;;5074232;28;20127;-75
2022/11/21 11:16:26;;;;;;;28.30;15.70;;;2.00;99.90;;;;;;5074175;28;20048;-75
2022/11/21 11:18:52;;;;;;;;;;;2.10;99.90;;;;;;5075011;28;20048;-77
2022/11/21 11:21:20;;;;;;;29.52;16.25;;;2.30;99.90;;;;;;5074422;28;19946;-75
2022/11/21 11:23:51;;;;;;;26.88;15.82;;;2.40;99.90;;;;;;5074147;28;20127;-76
2022/11/21 11:26:24;;;;;;;26.88;15.43;;;2.40;99.90;;;;;;5074295;28;20045;-76
2022/11/21 11:28:50;;;;;;;28.25;15.05;;;2.50;99.90;;;;;;5073819;28;20040;-76
2022/11/21 11:31:16;;;;;;;24.70;15.13;;;2.50;99.90;;;;;;5074503;28;20449;-77
2022/11/21 11:33:48;;;;;;;26.83;16.05;;;2.50;99.90;;;;;;5073839;28;20086;-76
2022/11/21 11:36:36;;;;;;;24.58;14.05;;;2.80;99.90;;;;;;5085478;28;20051;-75
2022/11/21 11:39:12;;;;;;;24.83;13.80;;;2.60;99.90;;;;;;5088966;28;20101;-74
2022/11/21 11:47:58;;;;;;;23.05;14.23;;;2.60;99.90;;;;;;5075532;28;20040;-74
2022/11/21 11:50:33;;;;;;;25.27;14.50;;;2.60;99.90;;;;;;5073922;28;20133;-75
2022/11/21 11:53:02;;;;;;;23.98;14.70;;;2.60;99.90;;;;;;5072652;28;20055;-73
2022/11/21 11:55:42;;;;;;;24.05;14.98;;;2.70;99.90;;;;;;5074195;28;20242;-75
2022/11/21 11:58:33;;;;;;;25.73;14.68;;;2.70;99.90;;;;;;5073674;28;20040;-73
2022/11/21 12:01:10;;;;;;;20.90;13.88;;;2.70;99.90;;;;;;5064789;28;20060;-77
2022/11/21 12:04:02;;;;;;;20.85;13.75;;;2.80;99.90;;;;;;5073672;28;20048;-78
2022/11/21 12:06:33;;;;;;;24.33;14.10;;;2.80;99.90;;;;;;5073795;28;20420;-77
2022/11/21 12:09:12;;;;;;;22.77;14.45;;;2.80;99.90;;;;;;5073547;28;20036;-78
2022/11/21 12:17:37;;;;;;;27.65;15.68;;;2.90;99.90;;;;;;5093496;28;20043;-76
2022/11/21 12:20:16;;;;;;;23.85;15.00;;;2.80;99.90;;;;;;5079693;28;20048;-77
2022/11/21 12:22:43;;;;;;;26.25;15.27;;;2.80;99.90;;;;;;5073607;28;20091;-75
2022/11/21 12:25:11;;;;;;;27.55;15.18;;;2.80;99.90;;;;;;5071820;28;20063;-77
2022/11/21 12:27:40;;;;;;;26.50;15.77;;;2.80;99.90;;;;;;5073144;28;20162;-78
2022/11/21 12:30:23;;;;;;;30.50;17.35;;;2.80;99.90;;;;;;5073263;28;20045;-77
2022/11/21 12:32:54;;;;;;;30.60;17.35;;;2.80;99.90;;;;;;5073409;28;20396;-76
2022/11/21 12:35:49;;;;;;;27.20;16.35;;;2.80;99.90;;;;;;5073337;28;20538;-75
2022/11/21 12:38:14;;;;;;;32.83;18.13;;;2.80;99.90;;;;;;5073293;28;20040;-76
2022/11/21 12:40:46;;;;;;;32.38;18.40;;;2.80;99.90;;;;;;5073530;28;20393;-75
2022/11/21 12:43:21;;;;;;;30.40;17.90;;;2.80;99.90;;;;;;5073454;28;20048;-76
2022/11/21 12:46:03;;;;;;;32.45;18.73;;;2.90;99.90;;;;;;5073126;28;20123;-75
2022/11/21 12:54:59;;;;;;;30.92;18.95;;;3.10;99.90;;;;;;5076723;28;20049;-76
2022/11/21 12:58:02;;;;;;;33.90;19.55;;;3.10;99.90;;;;;;5076833;28;20063;-76
2022/11/21 13:00:51;;;;;;;31.38;18.00;;;3.20;99.90;;;;;;5076702;28;20051;-76
2022/11/21 13:03:26;;;;;;;35.80;19.88;;;3.20;99.90;;;;;;5076556;28;20067;-76
2022/11/21 13:05:54;;;;;;;32.70;19.08;;;3.20;99.90;;;;;;5076649;28;20051;-75
2022/11/21 13:08:29;;;;;;;33.03;19.10;;;3.20;99.90;;;;;;5076416;28;20044;-75
2022/11/21 13:14:20;;;;;;;35.42;20.25;;;3.30;99.90;;;;;;5076384;28;20048;-74
2022/11/21 13:16:53;;;;;;;38.15;20.42;;;3.30;99.90;;;;;;5076715;28;20044;-74